Time;durP1;ratioP1;P1;durP2;ratioP2;P2;SDS_P1;SDS_P2;PMS_P1;PMS_P2;Temp;Humidity;BMP_temperature;BMP_pressure;BME280_temperature;BME280_humidity;BME280_pressure;Samples;Min_cycle;Max_cycle;Signal;HPM_P1;HPM_P2
2024/03/18 00:02:12;;;;;;;9.70;2.22;;;6.90;99.90;;;;;;5051298;28;20073;-76
2024/03/18 00:04:37;;;;;;;11.90;1.85;;;6.90;99.90;;;;;;5050956;28;20030;-76
2024/03/18 00:07:03;;;;;;;7.95;2.05;;;6.80;99.90;;;;;;5051101;28;20461;-75
2024/03/18 00:09:28;;;;;;;5.47;1.65;;;6.90;99.90;;;;;;5052583;28;20075;-76
2024/03/18 00:11:54;;;;;;;12.77;2.35;;;6.80;99.90;;;;;;5051194;28;20020;-76
2024/03/18 00:14:20;;;;;;;17.08;2.10;;;6.90;99.90;;;;;;5051375;28;20485;-76
2024/03/18 00:16:45;;;;;;;11.88;1.90;;;7.00;99.90;;;;;;5052002;28;20081;-78
2024/03/18 00:19:11;;;;;;;12.20;1.90;;;6.90;99.90;;;;;;5050826;28;20029;-77
2024/03/18 00:21:38;;;;;;;9.95;1.85;;;6.90;99.90;;;;;;5050727;28;20489;-75
2024/03/18 00:24:04;;;;;;;8.93;2.33;;;6.90;99.90;;;;;;5051881;28;20025;-78
2024/03/18 00:26:29;;;;;;;13.43;2.15;;;6.90;99.90;;;;;;5052601;28;20017;-77
2024/03/18 00:28:55;;;;;;;12.38;2.38;;;6.90;99.90;;;;;;5052524;28;20528;-79
2024/03/18 00:31:21;;;;;;;11.90;2.08;;;6.90;99.90;;;;;;5050455;28;20025;-77
2024/03/18 00:33:47;;;;;;;14.48;2.28;;;6.90;99.90;;;;;;5050466;28;20041;-78
2024/03/18 00:36:13;;;;;;;14.93;2.13;;;6.90;99.90;;;;;;5051998;28;20032;-78
2024/03/18 00:38:38;;;;;;;12.95;1.95;;;6.80;99.90;;;;;;5051819;28;20363;-78
2024/03/18 00:43:48;;;;;;;11.25;2.15;;;6.90;99.90;;;;;;5052061;28;20075;-76
2024/03/18 00:46:14;;;;;;;9.45;2.00;;;6.80;99.90;;;;;;5049691;28;20527;-76
2024/03/18 00:48:39;;;;;;;8.95;2.00;;;6.80;99.90;;;;;;5050256;28;20039;-77
2024/03/18 00:51:05;;;;;;;12.50;2.03;;;6.80;99.90;;;;;;5051729;28;20061;-76
2024/03/18 00:53:32;;;;;;;15.70;2.38;;;6.80;99.90;;;;;;5051781;28;20056;-76
2024/03/18 00:55:57;;;;;;;8.05;2.15;;;6.80;99.90;;;;;;5052295;28;20047;-76
2024/03/18 00:58:23;;;;;;;10.75;1.80;;;6.80;99.90;;;;;;5050086;28;20017;-77
2024/03/18 01:00:49;;;;;;;12.52;2.10;;;6.80;99.90;;;;;;5050264;28;20032;-76
2024/03/18 01:03:15;;;;;;;9.43;1.80;;;6.80;99.90;;;;;;5051852;28;20041;-76
2024/03/18 01:05:40;;;;;;;6.60;1.77;;;6.80;99.90;;;;;;5051268;28;20021;-78
2024/03/18 01:08:06;;;;;;;13.20;1.80;;;6.80;99.90;;;;;;5050116;28;20040;-77
2024/03/18 01:10:33;;;;;;;7.72;1.77;;;6.80;99.90;;;;;;5050487;28;20039;-77
2024/03/18 01:12:59;;;;;;;11.35;2.22;;;6.80;99.90;;;;;;5051407;28;20014;-78
2024/03/18 01:15:25;;;;;;;12.85;2.40;;;6.70;99.90;;;;;;5051524;28;20072;-79
2024/03/18 01:17:52;;;;;;;12.07;2.60;;;6.70;99.90;;;;;;5051974;28;20036;-79
2024/03/18 01:20:19;;;;;;;7.72;1.80;;;6.70;99.90;;;;;;5049747;28;20032;-78
2024/03/18 01:22:45;;;;;;;17.00;2.85;;;6.70;99.90;;;;;;5050142;28;20032;-76
2024/03/18 01:25:17;;;;;;;12.50;1.92;;;6.70;99.90;;;;;;5050438;28;20123;-76
2024/03/18 01:27:45;;;;;;;16.58;2.30;;;6.70;99.90;;;;;;5050966;28;20116;-79
2024/03/18 01:30:12;;;;;;;10.05;1.90;;;6.70;99.90;;;;;;5051442;28;20355;-78
2024/03/18 01:32:38;;;;;;;13.75;2.78;;;6.70;99.90;;;;;;5049770;28;20021;-76
2024/03/18 01:35:05;;;;;;;12.00;1.90;;;6.70;99.90;;;;;;5049591;28;20042;-77
2024/03/18 01:37:31;;;;;;;8.85;1.80;;;6.70;99.90;;;;;;5049984;28;20051;-76
2024/03/18 01:39:56;;;;;;;12.32;1.95;;;6.70;99.90;;;;;;5051509;28;20017;-77
2024/03/18 01:42:22;;;;;;;8.65;1.42;;;6.70;99.90;;;;;;5050875;28;20160;-78
2024/03/18 01:44:53;;;;;;;10.23;1.95;;;6.70;99.90;;;;;;5050513;28;20025;-76
2024/03/18 01:47:18;;;;;;;8.10;1.80;;;6.70;99.90;;;;;;5050556;28;20025;-76
2024/03/18 01:49:44;;;;;;;11.38;2.00;;;6.70;99.90;;;;;;5049931;28;20028;-77
2024/03/18 01:52:10;;;;;;;7.97;1.63;;;6.70;99.90;;;;;;5051234;28;20044;-76
2024/03/18 01:54:36;;;;;;;11.05;2.00;;;6.70;99.90;;;;;;5051213;28;20028;-78
2024/03/18 01:57:01;;;;;;;11.63;2.20;;;6.70;99.90;;;;;;5051197;28;20040;-75
2024/03/18 01:59:27;;;;;;;12.30;2.00;;;6.70;99.90;;;;;;5052647;28;20113;-76
2024/03/18 02:01:52;;;;;;;11.48;2.00;;;6.70;99.90;;;;;;5054872;28;20466;-80
2024/03/18 02:04:18;;;;;;;11.10;2.05;;;6.70;99.90;;;;;;5054819;28;20032;-79
2024/03/18 02:06:44;;;;;;;8.63;1.88;;;6.60;99.90;;;;;;5055046;28;20040;-76
2024/03/18 02:09:09;;;;;;;15.73;2.38;;;6.60;99.90;;;;;;5052984;28;20041;-78
2024/03/18 02:11:35;;;;;;;10.00;2.20;;;6.60;99.90;;;;;;5054706;28;20032;-77
2024/03/18 02:14:00;;;;;;;8.50;2.05;;;6.60;99.90;;;;;;5054832;28;20508;-76
2024/03/18 02:16:28;;;;;;;10.80;2.13;;;6.60;99.90;;;;;;5054475;28;20029;-79
2024/03/18 02:18:54;;;;;;;8.80;1.45;;;6.60;99.90;;;;;;5077680;28;20510;-78
2024/03/18 02:21:19;;;;;;;6.95;1.65;;;6.60;99.90;;;;;;5054624;28;20044;-76
2024/03/18 02:23:45;;;;;;;9.05;1.65;;;6.60;99.90;;;;;;5054372;28;20036;-76
2024/03/18 02:26:10;;;;;;;14.70;2.50;;;6.60;99.90;;;;;;5054445;28;20044;-76
2024/03/18 02:28:42;;;;;;;13.18;2.08;;;6.60;99.90;;;;;;5053199;28;20021;-76
2024/03/18 02:31:08;;;;;;;11.60;1.83;;;6.60;99.90;;;;;;5052387;28;20033;-77
2024/03/18 02:33:35;;;;;;;4.57;1.70;;;6.60;99.90;;;;;;5054473;28;20060;-76
2024/03/18 02:36:06;;;;;;;14.35;1.90;;;6.60;99.90;;;;;;5053331;28;20112;-77
2024/03/18 02:38:32;;;;;;;10.13;1.90;;;6.60;99.90;;;;;;5054030;28;20190;-76
2024/03/18 02:40:58;;;;;;;8.50;2.00;;;6.60;99.90;;;;;;5052830;28;20033;-77
2024/03/18 02:43:23;;;;;;;10.68;2.03;;;6.60;99.90;;;;;;5053916;28;20031;-77
2024/03/18 02:45:49;;;;;;;13.95;2.10;;;6.60;99.90;;;;;;5052734;28;20106;-77
2024/03/18 02:48:18;;;;;;;6.88;1.80;;;6.60;99.90;;;;;;5052430;28;20025;-77
2024/03/18 02:50:43;;;;;;;12.18;2.30;;;6.60;99.90;;;;;;5052243;28;20022;-79
2024/03/18 02:53:09;;;;;;;8.85;1.77;;;6.60;99.90;;;;;;5052873;28;20036;-78
2024/03/18 02:55:35;;;;;;;13.27;2.13;;;6.60;99.90;;;;;;5053930;28;20040;-78
2024/03/18 02:58:01;;;;;;;8.07;2.13;;;6.50;99.90;;;;;;5053741;28;20086;-76
2024/03/18 03:00:26;;;;;;;9.70;1.70;;;6.50;99.90;;;;;;5052436;28;20768;-77
2024/03/18 03:02:52;;;;;;;9.77;1.70;;;6.50;99.90;;;;;;5053214;28;20076;-77
2024/03/18 03:05:18;;;;;;;12.38;2.00;;;6.50;99.90;;;;;;5052679;28;20025;-78
2024/03/18 03:07:43;;;;;;;5.57;1.60;;;6.50;99.90;;;;;;5052006;28;20474;-78
2024/03/18 03:10:09;;;;;;;8.25;1.90;;;6.60;99.90;;;;;;5051789;28;20080;-77
2024/03/18 03:12:35;;;;;;;8.57;1.70;;;6.50;99.90;;;;;;5053259;28;20067;-75
2024/03/18 03:15:00;;;;;;;13.18;2.10;;;6.50;99.90;;;;;;5053551;28;20040;-76
2024/03/18 03:17:27;;;;;;;8.50;1.40;;;6.40;99.90;;;;;;5054102;28;20033;-76
2024/03/18 03:19:53;;;;;;;5.90;1.63;;;6.40;99.90;;;;;;5051780;28;20112;-76
2024/03/18 03:22:22;;;;;;;9.40;1.90;;;6.40;99.90;;;;;;5052260;28;20048;-77
2024/03/18 03:24:47;;;;;;;11.20;1.95;;;6.40;99.90;;;;;;5052398;28;20034;-76
2024/03/18 03:27:14;;;;;;;8.30;2.00;;;6.40;99.90;;;;;;5053066;28;20025;-76
2024/03/18 03:29:40;;;;;;;15.60;2.03;;;6.40;99.90;;;;;;5052967;28;20032;-77
2024/03/18 03:32:06;;;;;;;8.25;2.10;;;6.40;99.90;;;;;;5053358;28;20129;-79
2024/03/18 03:34:32;;;;;;;8.43;2.75;;;6.40;99.90;;;;;;5051616;28;20489;-78
2024/03/18 03:36:57;;;;;;;8.85;2.63;;;6.30;99.90;;;;;;5053481;28;20025;-81
2024/03/18 03:39:24;;;;;;;9.80;2.17;;;6.30;99.90;;;;;;5053567;28;20035;-80
2024/03/18 03:41:49;;;;;;;10.35;1.98;;;6.30;99.90;;;;;;5053670;28;20140;-79
2024/03/18 03:44:15;;;;;;;7.65;1.83;;;6.30;99.90;;;;;;5050883;28;20049;-80
2024/03/18 03:46:41;;;;;;;12.15;1.95;;;6.30;99.90;;;;;;5051750;28;20097;-79
2024/03/18 03:49:07;;;;;;;10.13;1.92;;;6.30;99.90;;;;;;5051929;28;20085;-80
2024/03/18 03:51:33;;;;;;;8.77;1.80;;;6.30;99.90;;;;;;5052821;28;20032;-80
2024/03/18 03:53:59;;;;;;;7.13;1.75;;;6.30;99.90;;;;;;5051641;28;20586;-79
2024/03/18 03:56:25;;;;;;;8.00;2.20;;;6.30;99.90;;;;;;5052047;28;20032;-81
2024/03/18 03:58:52;;;;;;;6.50;1.90;;;6.30;99.90;;;;;;5053452;28;20036;-79
2024/03/18 04:01:19;;;;;;;11.73;2.10;;;6.30;99.90;;;;;;5050954;28;20026;-77
2024/03/18 04:03:45;;;;;;;9.88;2.25;;;6.30;99.90;;;;;;5052730;28;20085;-77
2024/03/18 04:06:10;;;;;;;7.38;1.83;;;6.30;99.90;;;;;;5052264;28;20052;-80
2024/03/18 04:08:36;;;;;;;9.88;2.13;;;6.30;99.90;;;;;;5053057;28;20025;-79
2024/03/18 04:11:02;;;;;;;7.75;1.92;;;6.30;99.90;;;;;;5051823;28;20055;-77
2024/03/18 04:13:31;;;;;;;11.48;2.40;;;6.30;99.90;;;;;;5052322;28;20025;-82
2024/03/18 04:15:57;;;;;;;8.07;1.80;;;6.20;99.90;;;;;;5053775;28;20163;-80
2024/03/18 04:18:24;;;;;;;7.25;2.08;;;6.20;99.90;;;;;;5031728;28;20046;-79
2024/03/18 04:20:51;;;;;;;9.40;1.88;;;6.20;99.90;;;;;;5032636;28;20026;-77
2024/03/18 04:23:17;;;;;;;12.88;1.98;;;6.20;99.90;;;;;;5031248;28;20029;-78
2024/03/18 04:25:42;;;;;;;9.48;2.15;;;6.20;99.90;;;;;;5031599;28;20032;-78
2024/03/18 04:28:08;;;;;;;9.98;2.00;;;6.20;99.90;;;;;;5030528;28;20028;-76
2024/03/18 04:30:37;;;;;;;10.52;2.33;;;6.20;99.90;;;;;;5031053;28;20025;-78
2024/03/18 04:33:04;;;;;;;12.45;2.33;;;6.10;99.90;;;;;;5031226;28;20018;-75
2024/03/18 04:35:30;;;;;;;7.80;2.20;;;6.20;99.90;;;;;;5031893;28;20151;-77
2024/03/18 04:37:55;;;;;;;11.43;2.53;;;6.20;99.90;;;;;;5032613;28;20045;-77
2024/03/18 04:40:23;;;;;;;6.38;2.05;;;6.10;99.90;;;;;;5032021;28;20036;-75
2024/03/18 04:42:49;;;;;;;12.80;1.88;;;6.20;99.90;;;;;;5032941;28;20846;-75
2024/03/18 04:45:19;;;;;;;8.32;2.42;;;6.10;99.90;;;;;;5032779;28;20044;-76
2024/03/18 04:47:46;;;;;;;6.10;1.85;;;6.10;99.90;;;;;;5033656;28;20112;-78
2024/03/18 04:50:14;;;;;;;9.00;2.05;;;6.10;99.90;;;;;;5047137;28;20025;-78
2024/03/18 04:52:40;;;;;;;8.20;2.28;;;6.10;99.90;;;;;;5046161;28;20053;-77
2024/03/18 04:55:07;;;;;;;7.50;2.35;;;6.10;99.90;;;;;;5032505;28;20040;-77
2024/03/18 04:57:34;;;;;;;10.02;2.67;;;6.10;99.90;;;;;;5031493;28;20018;-77
2024/03/18 04:59:59;;;;;;;8.65;1.60;;;6.10;99.90;;;;;;5031206;28;20029;-75
2024/03/18 05:02:25;;;;;;;9.45;2.30;;;6.10;99.90;;;;;;5032598;28;20045;-77
2024/03/18 05:04:52;;;;;;;10.25;2.38;;;6.10;99.90;;;;;;5033324;28;20063;-77
2024/03/18 05:07:18;;;;;;;8.30;2.30;;;6.10;99.90;;;;;;5029870;28;21013;-78
2024/03/18 05:09:44;;;;;;;8.13;2.13;;;6.10;99.90;;;;;;5032630;28;20116;-75
2024/03/18 05:12:10;;;;;;;7.55;2.60;;;6.10;99.90;;;;;;5033169;28;20025;-75
2024/03/18 05:14:36;;;;;;;8.35;2.10;;;6.00;99.90;;;;;;5032767;28;20125;-74
2024/03/18 05:17:02;;;;;;;6.75;2.80;;;6.00;99.90;;;;;;5030528;28;20057;-77
2024/03/18 05:19:27;;;;;;;9.30;2.72;;;6.00;99.90;;;;;;5030733;28;20089;-77
2024/03/18 05:21:53;;;;;;;13.48;2.50;;;5.90;99.90;;;;;;5030584;28;20068;-76
2024/03/18 05:24:18;;;;;;;7.00;2.40;;;5.90;99.90;;;;;;5029906;28;20029;-78
2024/03/18 05:26:45;;;;;;;11.32;3.28;;;5.90;99.90;;;;;;5031561;28;20022;-76
2024/03/18 05:29:11;;;;;;;15.02;3.20;;;6.00;99.90;;;;;;5030067;28;20113;-73
2024/03/18 05:31:37;;;;;;;9.90;2.50;;;5.90;99.90;;;;;;5029782;28;20030;-75
2024/03/18 05:34:05;;;;;;;7.57;2.83;;;6.00;99.90;;;;;;5033268;28;20030;-77
2024/03/18 05:36:34;;;;;;;7.65;2.47;;;6.00;99.90;;;;;;5036623;28;20029;-75
2024/03/18 05:38:59;;;;;;;8.90;2.58;;;6.00;99.90;;;;;;5034701;28;20018;-75
2024/03/18 05:41:25;;;;;;;11.23;3.20;;;6.00;99.90;;;;;;5034556;28;20386;-76
2024/03/18 05:43:51;;;;;;;10.43;3.42;;;5.90;99.90;;;;;;5034446;28;20025;-76
2024/03/18 05:46:18;;;;;;;12.73;3.00;;;5.90;99.90;;;;;;5033254;28;20022;-76
2024/03/18 05:48:43;;;;;;;12.57;3.22;;;5.90;99.90;;;;;;5034946;28;20045;-76
2024/03/18 05:51:09;;;;;;;7.60;2.95;;;5.90;99.90;;;;;;5034812;28;20038;-77
2024/03/18 05:53:35;;;;;;;7.82;2.55;;;6.00;99.90;;;;;;5034488;28;20022;-75
2024/03/18 05:56:02;;;;;;;10.73;3.40;;;6.00;99.90;;;;;;5035654;28;20022;-75
2024/03/18 05:58:28;;;;;;;9.35;3.30;;;6.00;99.90;;;;;;5034478;28;20030;-76
2024/03/18 06:00:54;;;;;;;11.13;3.53;;;5.90;99.90;;;;;;5033840;28;20025;-76
2024/03/18 06:03:20;;;;;;;11.73;3.88;;;6.00;99.90;;;;;;5033756;28;20049;-75
2024/03/18 06:05:45;;;;;;;9.05;3.00;;;6.00;99.90;;;;;;5033776;28;20060;-76
2024/03/18 06:08:11;;;;;;;11.75;3.20;;;6.00;99.90;;;;;;5033161;28;20045;-75
2024/03/18 06:10:37;;;;;;;12.32;3.15;;;6.10;99.90;;;;;;5033877;28;20041;-75
2024/03/18 06:13:02;;;;;;;8.98;3.10;;;6.10;99.90;;;;;;5034213;28;20393;-74
2024/03/18 06:15:28;;;;;;;6.53;2.70;;;6.10;99.90;;;;;;5035592;28;20042;-75
2024/03/18 06:17:54;;;;;;;11.32;3.60;;;6.00;99.90;;;;;;5033956;28;20033;-75
2024/03/18 06:20:19;;;;;;;13.55;3.78;;;6.00;99.90;;;;;;5033701;28;20025;-77
2024/03/18 06:22:47;;;;;;;13.73;3.47;;;6.00;99.90;;;;;;5033637;28;20039;-75
2024/03/18 06:27:57;;;;;;;12.15;3.38;;;6.00;99.90;;;;;;5036028;28;20083;-76
2024/03/18 06:30:22;;;;;;;10.20;2.97;;;6.00;99.90;;;;;;5032916;28;20026;-73
2024/03/18 06:32:48;;;;;;;11.57;3.70;;;6.00;99.90;;;;;;5033554;28;20026;-76
2024/03/18 06:35:13;;;;;;;11.65;3.22;;;6.00;99.90;;;;;;5034802;28;20045;-75
2024/03/18 06:37:39;;;;;;;8.40;3.08;;;6.00;99.90;;;;;;5034324;28;20022;-74
2024/03/18 06:40:07;;;;;;;11.95;3.40;;;6.00;99.90;;;;;;5034616;28;20079;-76
2024/03/18 06:42:32;;;;;;;13.38;3.40;;;6.00;99.90;;;;;;5034932;28;20057;-74
2024/03/18 06:44:58;;;;;;;11.20;3.75;;;6.10;99.90;;;;;;5055826;28;20018;-76
2024/03/18 06:47:25;;;;;;;10.38;3.22;;;6.10;99.90;;;;;;5034431;28;20026;-75
2024/03/18 06:49:51;;;;;;;12.18;3.25;;;6.10;99.90;;;;;;5035229;28;20025;-75
2024/03/18 06:52:17;;;;;;;12.43;3.40;;;6.10;99.90;;;;;;5036282;28;20017;-75
2024/03/18 06:54:43;;;;;;;13.07;3.80;;;6.10;99.90;;;;;;5056008;28;20042;-75
2024/03/18 06:57:09;;;;;;;13.85;4.00;;;6.10;99.90;;;;;;5033663;28;20037;-75
2024/03/18 06:59:35;;;;;;;14.13;3.15;;;6.20;99.90;;;;;;5033589;28;20026;-75
2024/03/18 07:02:01;;;;;;;10.98;3.78;;;6.20;99.90;;;;;;5033739;28;20050;-76
2024/03/18 07:04:27;;;;;;;8.63;3.08;;;6.20;99.90;;;;;;5035086;28;20036;-74
2024/03/18 07:06:53;;;;;;;13.93;3.30;;;6.20;99.90;;;;;;5035223;28;20691;-75
2024/03/18 07:09:19;;;;;;;7.03;3.10;;;6.20;99.90;;;;;;5032883;28;20107;-76
2024/03/18 07:11:45;;;;;;;11.60;3.50;;;6.20;99.90;;;;;;5034636;28;20034;-75
2024/03/18 07:14:13;;;;;;;11.27;3.45;;;6.20;99.90;;;;;;5035839;28;20029;-73
2024/03/18 07:16:38;;;;;;;11.05;3.47;;;6.20;99.90;;;;;;5033379;28;20030;-77
2024/03/18 07:19:04;;;;;;;11.43;3.65;;;6.20;99.90;;;;;;5029309;28;20098;-74
2024/03/18 07:21:30;;;;;;;9.43;3.63;;;6.30;99.90;;;;;;5034759;28;20032;-77
2024/03/18 07:23:55;;;;;;;10.48;3.28;;;6.40;99.90;;;;;;5033371;28;20033;-76
2024/03/18 07:26:22;;;;;;;10.20;3.42;;;6.40;99.90;;;;;;5033441;28;20068;-73
2024/03/18 07:28:48;;;;;;;9.32;4.00;;;6.40;99.90;;;;;;5030481;28;20065;-76
2024/03/18 07:31:13;;;;;;;10.98;3.35;;;6.40;99.90;;;;;;5034295;28;20037;-76
2024/03/18 07:33:42;;;;;;;11.73;3.92;;;6.50;99.90;;;;;;5032987;28;20030;-75
2024/03/18 07:36:08;;;;;;;8.50;3.70;;;6.50;99.90;;;;;;5031966;28;20485;-76
2024/03/18 07:38:34;;;;;;;11.88;3.72;;;6.50;99.90;;;;;;5033927;28;20063;-75
2024/03/18 07:41:00;;;;;;;10.90;3.75;;;6.50;99.90;;;;;;5033254;28;20017;-75
2024/03/18 07:43:26;;;;;;;9.18;3.75;;;6.60;99.90;;;;;;5032703;28;20026;-75
2024/03/18 07:45:51;;;;;;;8.80;3.20;;;6.60;99.90;;;;;;5034224;28;20034;-77
2024/03/18 07:48:17;;;;;;;9.77;4.00;;;6.70;99.90;;;;;;5035390;28;20022;-78
2024/03/18 07:50:42;;;;;;;9.98;3.97;;;6.70;99.90;;;;;;5032281;28;20034;-76
2024/03/18 07:53:08;;;;;;;9.75;3.60;;;6.70;99.90;;;;;;5033734;28;20033;-76
2024/03/18 07:55:34;;;;;;;12.57;4.28;;;6.80;99.90;;;;;;5033217;28;20038;-74
2024/03/18 07:58:00;;;;;;;9.90;3.95;;;6.80;99.90;;;;;;5032438;28;20076;-76
2024/03/18 08:00:25;;;;;;;16.30;4.80;;;6.90;99.90;;;;;;5032465;28;20024;-74
2024/03/18 08:02:51;;;;;;;15.77;4.20;;;6.90;99.90;;;;;;5033123;28;20058;-75
2024/03/18 08:05:16;;;;;;;9.05;4.25;;;6.90;99.90;;;;;;5033377;28;20033;-78
2024/03/18 08:07:42;;;;;;;12.50;3.80;;;7.00;99.90;;;;;;5033064;28;20885;-77
2024/03/18 08:10:08;;;;;;;9.88;3.63;;;7.00;99.90;;;;;;5033321;28;20025;-76
2024/03/18 08:12:36;;;;;;;10.80;4.07;;;7.00;99.90;;;;;;5033339;28;20021;-76
2024/03/18 08:15:03;;;;;;;10.10;3.58;;;7.10;99.90;;;;;;5033658;28;20065;-76
2024/03/18 08:17:28;;;;;;;12.15;3.97;;;7.10;99.90;;;;;;5033505;28;20022;-76
2024/03/18 08:19:54;;;;;;;16.40;4.18;;;7.10;99.90;;;;;;5031605;28;20470;-74
2024/03/18 08:22:19;;;;;;;13.27;4.82;;;7.10;99.90;;;;;;5055580;28;20033;-76
2024/03/18 08:24:49;;;;;;;9.50;3.92;;;7.10;99.90;;;;;;5030484;28;20036;-79
2024/03/18 08:27:15;;;;;;;13.18;5.10;;;7.00;99.90;;;;;;5031682;28;20104;-77
2024/03/18 08:29:41;;;;;;;8.30;3.75;;;7.00;99.90;;;;;;5032220;28;20022;-76
2024/03/18 08:32:10;;;;;;;10.35;4.43;;;7.00;99.90;;;;;;5030744;28;20160;-78
2024/03/18 08:34:35;;;;;;;10.48;4.75;;;7.00;99.90;;;;;;5030980;28;20033;-77
2024/03/18 08:37:01;;;;;;;11.55;4.45;;;7.00;99.90;;;;;;5033435;28;20022;-76
2024/03/18 08:39:27;;;;;;;12.07;4.35;;;7.00;99.90;;;;;;5031477;28;20083;-74
2024/03/18 08:41:52;;;;;;;11.55;5.68;;;7.00;99.90;;;;;;5032229;28;20029;-74
2024/03/18 08:44:18;;;;;;;11.85;5.18;;;7.00;99.90;;;;;;5032815;28;20033;-76
2024/03/18 08:46:44;;;;;;;14.70;4.63;;;7.00;99.90;;;;;;5032361;28;20034;-76
2024/03/18 08:49:13;;;;;;;12.18;4.50;;;7.00;99.90;;;;;;5032547;28;20026;-77
2024/03/18 08:51:40;;;;;;;8.38;4.80;;;7.00;99.90;;;;;;5031766;28;20018;-77
2024/03/18 08:54:06;;;;;;;12.98;4.60;;;7.00;99.90;;;;;;5031622;28;20033;-76
2024/03/18 08:56:32;;;;;;;12.85;4.60;;;7.00;99.90;;;;;;5052279;28;20025;-76
2024/03/18 08:58:58;;;;;;;8.85;4.15;;;7.00;99.90;;;;;;5030702;28;20060;-75
2024/03/18 09:01:24;;;;;;;11.73;4.18;;;7.10;99.90;;;;;;5030265;28;20021;-76
2024/03/18 09:03:49;;;;;;;11.38;4.97;;;7.10;99.90;;;;;;5030694;28;20120;-77
2024/03/18 09:06:16;;;;;;;18.02;5.13;;;7.20;99.90;;;;;;5029601;28;21685;-76
2024/03/18 09:08:45;;;;;;;11.65;4.90;;;7.30;99.90;;;;;;5031751;28;20029;-75
2024/03/18 09:11:13;;;;;;;11.27;5.22;;;7.50;99.90;;;;;;5031319;28;20064;-77
2024/03/18 09:13:40;;;;;;;13.73;5.80;;;7.70;99.90;;;;;;5031879;28;20030;-79
2024/03/18 09:16:05;;;;;;;11.38;5.20;;;7.80;99.90;;;;;;5029381;28;20026;-76
2024/03/18 09:18:31;;;;;;;12.40;4.70;;;8.00;99.90;;;;;;5031816;28;20056;-76
2024/03/18 09:20:57;;;;;;;8.18;4.32;;;8.10;99.90;;;;;;5029845;28;20022;-78
2024/03/18 09:23:23;;;;;;;14.90;5.60;;;8.30;99.90;;;;;;5030141;28;20394;-78
2024/03/18 09:25:49;;;;;;;12.88;4.65;;;8.30;99.90;;;;;;5031643;28;20022;-76
2024/03/18 09:28:15;;;;;;;11.05;5.03;;;8.30;99.90;;;;;;5030005;28;20029;-79
2024/03/18 09:30:41;;;;;;;12.25;4.93;;;8.30;99.90;;;;;;5030937;28;20033;-76
2024/03/18 09:33:06;;;;;;;9.30;5.10;;;8.30;99.90;;;;;;5031619;28;20416;-79
2024/03/18 09:35:33;;;;;;;13.00;4.32;;;8.30;99.90;;;;;;5031704;28;20060;-75
2024/03/18 09:37:58;;;;;;;12.63;5.15;;;8.30;99.90;;;;;;5029420;28;20032;-76
2024/03/18 09:40:31;;;;;;;15.18;5.40;;;8.30;99.90;;;;;;5036378;28;20026;-77
2024/03/18 09:42:57;;;;;;;13.60;4.78;;;8.40;99.90;;;;;;5031269;28;20034;-77
2024/03/18 09:45:26;;;;;;;11.40;4.57;;;8.40;99.90;;;;;;5030905;28;20112;-75
2024/03/18 09:47:53;;;;;;;13.77;5.70;;;8.60;99.90;;;;;;5030145;28;20030;-75
2024/03/18 09:50:19;;;;;;;10.18;5.07;;;8.70;99.90;;;;;;5031345;28;20033;-74
2024/03/18 09:52:46;;;;;;;17.33;5.75;;;8.70;99.90;;;;;;5031338;28;20079;-75
2024/03/18 09:55:23;;;;;;;11.30;5.13;;;8.80;99.90;;;;;;5030172;28;20048;-75
2024/03/18 09:57:49;;;;;;;10.45;5.07;;;9.00;99.90;;;;;;5031356;28;20038;-75
2024/03/18 10:00:17;;;;;;;11.65;5.10;;;9.10;99.90;;;;;;5029923;28;20056;-78
2024/03/18 10:02:43;;;;;;;11.85;5.13;;;9.20;99.90;;;;;;5030633;28;20057;-74
2024/03/18 10:05:09;;;;;;;14.98;5.15;;;9.30;99.90;;;;;;5031239;28;20057;-76
2024/03/18 10:07:36;;;;;;;12.88;5.47;;;9.40;99.90;;;;;;5030049;28;20029;-76
2024/03/18 10:10:04;;;;;;;12.10;5.47;;;9.40;99.90;;;;;;5030923;28;20030;-76
2024/03/18 10:12:30;;;;;;;11.05;5.15;;;9.40;99.90;;;;;;5031569;28;20034;-77
2024/03/18 10:14:57;;;;;;;11.02;5.65;;;9.40;99.90;;;;;;5031423;28;20072;-74
2024/03/18 10:17:25;;;;;;;10.85;4.75;;;9.40;99.90;;;;;;5031304;28;20453;-77
2024/03/18 10:19:51;;;;;;;12.63;5.68;;;9.30;99.90;;;;;;5030554;28;20587;-76
2024/03/18 10:22:16;;;;;;;14.48;6.45;;;9.20;99.90;;;;;;5033276;28;20033;-76
2024/03/18 10:24:45;;;;;;;15.07;6.47;;;9.20;99.90;;;;;;5035127;28;20499;-75
2024/03/18 10:27:12;;;;;;;14.77;5.68;;;9.10;99.90;;;;;;5035579;28;20026;-74
2024/03/18 10:29:39;;;;;;;13.63;5.55;;;9.10;99.90;;;;;;5035202;28;20033;-78
2024/03/18 10:32:26;;;;;;;16.20;6.25;;;9.10;99.90;;;;;;5034891;28;20042;-76
2024/03/18 10:34:56;;;;;;;13.00;6.47;;;9.10;99.90;;;;;;5035482;28;20028;-75
2024/03/18 10:37:27;;;;;;;14.93;5.97;;;9.20;99.90;;;;;;5034571;28;20077;-75
2024/03/18 10:40:01;;;;;;;16.40;6.57;;;9.20;99.90;;;;;;5035064;28;20750;-75
2024/03/18 10:42:34;;;;;;;13.68;6.53;;;9.20;99.90;;;;;;5034687;28;20029;-77
2024/03/18 10:45:17;;;;;;;10.32;4.63;;;9.20;99.90;;;;;;5034863;28;20458;-76
2024/03/18 10:47:45;;;;;;;16.92;4.70;;;9.20;99.90;;;;;;5032557;28;20029;-75
2024/03/18 10:50:16;;;;;;;14.27;6.22;;;9.10;99.90;;;;;;5033510;28;20105;-78
2024/03/18 10:52:43;;;;;;;14.02;6.22;;;9.10;99.90;;;;;;5034158;28;20078;-78
2024/03/18 10:55:20;;;;;;;11.75;5.35;;;9.10;99.90;;;;;;5033685;28;20038;-78
2024/03/18 10:57:53;;;;;;;12.70;5.95;;;9.20;99.90;;;;;;5036020;28;20079;-78
2024/03/18 11:00:20;;;;;;;15.05;6.93;;;9.20;99.90;;;;;;5031612;28;20033;-77
2024/03/18 11:02:58;;;;;;;14.60;6.43;;;9.30;99.90;;;;;;5031648;28;20575;-78
2024/03/18 11:05:29;;;;;;;13.18;6.63;;;9.40;99.90;;;;;;5051437;28;20030;-76
2024/03/18 11:08:16;;;;;;;13.68;6.90;;;9.50;99.90;;;;;;5033069;28;20363;-79
2024/03/18 11:10:43;;;;;;;16.00;7.32;;;9.50;99.90;;;;;;5033692;28;20036;-76
2024/03/18 11:13:12;;;;;;;15.18;6.50;;;9.40;99.90;;;;;;5033725;28;20041;-77
2024/03/18 11:15:39;;;;;;;20.02;7.18;;;9.40;99.90;;;;;;5034034;28;20057;-76
2024/03/18 11:18:06;;;;;;;17.30;7.63;;;9.40;99.90;;;;;;5032807;28;20013;-75
2024/03/18 11:20:46;;;;;;;15.07;7.22;;;9.40;99.90;;;;;;5032774;28;20053;-77
2024/03/18 11:23:21;;;;;;;18.13;7.53;;;9.40;99.90;;;;;;5034025;28;20081;-76
2024/03/18 11:25:53;;;;;;;17.27;7.72;;;9.40;99.90;;;;;;5033006;28;20465;-77
2024/03/18 11:28:18;;;;;;;16.73;7.55;;;9.40;99.90;;;;;;5032610;28;20030;-77
2024/03/18 11:30:47;;;;;;;16.27;6.80;;;9.30;99.90;;;;;;5033303;28;20033;-77
2024/03/18 11:33:14;;;;;;;21.10;6.47;;;9.20;99.90;;;;;;5032792;28;20084;-76
2024/03/18 11:35:43;;;;;;;15.38;7.88;;;9.10;99.90;;;;;;5033089;28;20034;-77
2024/03/18 11:38:18;;;;;;;16.48;7.68;;;9.00;99.90;;;;;;5032774;28;20018;-78
2024/03/18 11:40:43;;;;;;;18.75;8.70;;;9.00;99.90;;;;;;5033769;28;20068;-76
2024/03/18 11:43:09;;;;;;;18.38;8.18;;;8.90;99.90;;;;;;5032066;28;20025;-76
2024/03/18 11:45:36;;;;;;;20.67;8.00;;;8.90;99.90;;;;;;5033642;28;20034;-80
2024/03/18 11:48:07;;;;;;;14.68;7.35;;;8.80;99.90;;;;;;5032062;28;20071;-77
2024/03/18 11:50:40;;;;;;;16.95;7.50;;;8.80;99.90;;;;;;5034944;28;20061;-75
2024/03/18 11:53:07;;;;;;;14.50;7.65;;;8.80;99.90;;;;;;5035984;28;20041;-76
2024/03/18 11:55:38;;;;;;;16.30;7.40;;;8.80;99.90;;;;;;5034023;28;20029;-75
2024/03/18 11:58:04;;;;;;;16.67;8.13;;;8.90;99.90;;;;;;5034093;28;20032;-74
2024/03/18 12:00:35;;;;;;;16.77;7.93;;;8.90;99.90;;;;;;5032080;28;20083;-75
2024/03/18 12:03:11;;;;;;;20.10;8.30;;;9.00;99.90;;;;;;5055848;28;20088;-74
2024/03/18 12:05:39;;;;;;;18.33;8.52;;;9.10;99.90;;;;;;5034346;28;20032;-74
2024/03/18 12:08:08;;;;;;;16.35;7.97;;;9.10;99.90;;;;;;5033333;28;20017;-75
2024/03/18 12:10:35;;;;;;;18.05;7.93;;;9.20;99.90;;;;;;5032557;28;20022;-76
2024/03/18 12:13:02;;;;;;;17.35;8.32;;;9.20;99.90;;;;;;5033751;28;20085;-76
2024/03/18 12:15:28;;;;;;;18.73;8.68;;;9.30;99.90;;;;;;5031945;28;20033;-76
2024/03/18 12:17:54;;;;;;;20.52;8.07;;;9.40;99.90;;;;;;5033875;28;20046;-74
2024/03/18 12:20:32;;;;;;;17.77;7.45;;;9.50;99.90;;;;;;5032895;28;20034;-77
2024/03/18 12:23:04;;;;;;;14.93;7.28;;;9.60;99.90;;;;;;5032076;28;20042;-80
2024/03/18 12:28:32;;;;;;;14.90;6.97;;;10.10;99.90;;;;;;5033951;28;20032;-76
2024/03/18 12:30:59;;;;;;;17.45;8.13;;;10.40;99.90;;;;;;5055365;28;20026;-78
2024/03/18 12:33:29;;;;;;;14.75;6.50;;;10.50;99.90;;;;;;5031721;28;20057;-74
2024/03/18 12:35:55;;;;;;;16.80;7.07;;;10.60;99.90;;;;;;5030853;28;20391;-75
2024/03/18 12:38:21;;;;;;;19.73;9.00;;;10.50;99.90;;;;;;5031472;28;20033;-77
2024/03/18 12:40:48;;;;;;;19.05;9.07;;;10.40;99.90;;;;;;5031498;28;20040;-77
2024/03/18 12:43:14;;;;;;;15.85;7.55;;;10.30;99.90;;;;;;5031937;28;20464;-77
2024/03/18 12:45:40;;;;;;;19.17;8.80;;;10.30;99.90;;;;;;5033379;28;20051;-76
2024/03/18 12:48:09;;;;;;;16.48;8.88;;;10.20;99.90;;;;;;5055167;28;20022;-75
2024/03/18 12:50:35;;;;;;;21.33;8.23;;;10.20;99.90;;;;;;5031668;28;20017;-76
2024/03/18 12:53:03;;;;;;;15.00;7.65;;;10.20;99.90;;;;;;5029536;28;20029;-75
2024/03/18 12:55:29;;;;;;;16.17;8.13;;;10.20;99.90;;;;;;5030415;28;20029;-76
2024/03/18 12:57:55;;;;;;;18.73;8.07;;;10.20;99.90;;;;;;5032996;28;20518;-76